createdAt,value
2019-01-24T00:02:10.063Z,-3.98
2019-01-24T00:04:40.756Z,-3.88
2019-01-24T00:07:13.387Z,-3.81
2019-01-24T00:09:49.721Z,-3.89
2019-01-24T00:12:20.045Z,-4.04
2019-01-24T00:14:50.510Z,-4.12
2019-01-24T00:17:21.140Z,-4.13
2019-01-24T00:19:51.786Z,-3.97
2019-01-24T00:22:22.663Z,-3.87
2019-01-24T00:24:53.282Z,-3.72
2019-01-24T00:27:23.648Z,-3.74
2019-01-24T00:29:54.014Z,-3.66
2019-01-24T00:32:24.300Z,-3.53
2019-01-24T00:34:54.590Z,-3.51
2019-01-24T00:37:24.934Z,-3.57
2019-01-24T00:39:55.310Z,-3.67
2019-01-24T00:42:25.618Z,-3.82
2019-01-24T00:44:55.906Z,-3.96
2019-01-24T00:47:26.336Z,-3.89
2019-01-24T00:49:57.555Z,-3.97
2019-01-24T00:52:27.835Z,-3.96
2019-01-24T00:54:58.258Z,-3.93
2019-01-24T00:57:28.901Z,-4.00
2019-01-24T00:59:59.199Z,-4.07
2019-01-24T01:02:29.615Z,-4.12
2019-01-24T01:05:00.332Z,-4.40
2019-01-24T01:07:30.558Z,-4.52
2019-01-24T01:10:01.062Z,-4.58
2019-01-24T01:12:31.631Z,-4.60
2019-01-24T01:15:02.073Z,-4.63
2019-01-24T01:17:32.855Z,-4.79
2019-01-24T01:20:05.598Z,-4.67
2019-01-24T01:22:35.927Z,-4.69
2019-01-24T01:25:07.759Z,-4.62
2019-01-24T01:27:38.023Z,-4.53
2019-01-24T01:30:11.545Z,-4.42
2019-01-24T01:32:42.068Z,-4.35
2019-01-24T01:35:12.717Z,-4.37
2019-01-24T01:37:42.924Z,-4.29
2019-01-24T01:40:13.850Z,-4.21
2019-01-24T01:42:44.145Z,-4.20
2019-01-24T01:45:22.503Z,-4.16
2019-01-24T01:47:52.823Z,-4.11
2019-01-24T01:50:24.731Z,-4.10
2019-01-24T01:52:55.114Z,-4.21
2019-01-24T01:55:25.321Z,-4.40
2019-01-24T01:57:55.659Z,-4.42
2019-01-24T02:00:29.845Z,-4.53
2019-01-24T02:03:00.272Z,-4.63
2019-01-24T02:05:32.358Z,-4.71
2019-01-24T02:08:02.707Z,-4.82
2019-01-24T02:10:32.905Z,-5.03
2019-01-24T02:13:03.225Z,-4.89
2019-01-24T02:15:33.543Z,-4.80
2019-01-24T02:18:04.148Z,-4.89
2019-01-24T02:20:34.397Z,-5.12
2019-01-24T02:23:05.434Z,-5.38
2019-01-24T02:25:36.163Z,-5.57
2019-01-24T02:28:06.587Z,-5.49
2019-01-24T02:30:37.730Z,-5.51
2019-01-24T02:33:08.306Z,-5.36
2019-01-24T02:35:38.734Z,-5.35
2019-01-24T02:38:09.476Z,-5.31
2019-01-24T02:40:39.810Z,-5.26
2019-01-24T02:43:10.221Z,-5.28
2019-01-24T02:45:42.445Z,-5.35
2019-01-24T02:48:12.831Z,-5.40
2019-01-24T02:50:43.086Z,-5.35
2019-01-24T02:53:14.545Z,-5.35
2019-01-24T02:55:44.868Z,-5.32
2019-01-24T02:58:15.097Z,-5.33
2019-01-24T03:00:46.027Z,-5.31
2019-01-24T03:03:18.444Z,-5.19
2019-01-24T03:05:49.090Z,-5.19
2019-01-24T03:08:19.491Z,-5.19
2019-01-24T03:10:50.080Z,-5.25
2019-01-24T03:13:21.253Z,-5.18
2019-01-24T03:15:51.849Z,-5.11
2019-01-24T03:18:22.337Z,-5.08
2019-01-24T03:20:52.599Z,-5.00
2019-01-24T03:23:22.966Z,-5.01
2019-01-24T03:25:53.296Z,-5.08
2019-01-24T03:28:23.832Z,-5.27
2019-01-24T03:30:54.226Z,-5.24
2019-01-24T03:33:24.559Z,-5.23
2019-01-24T03:35:54.989Z,-5.18
2019-01-24T03:38:25.280Z,-5.11
2019-01-24T03:40:55.635Z,-5.10
2019-01-24T03:43:25.973Z,-5.07
2019-01-24T03:45:56.269Z,-5.24
2019-01-24T03:48:26.884Z,-5.34
2019-01-24T03:50:57.209Z,-5.34
2019-01-24T03:53:27.580Z,-5.33
2019-01-24T03:55:58.271Z,-5.29
2019-01-24T03:58:30.648Z,-5.38
2019-01-24T04:01:01.087Z,-5.24
2019-01-24T04:03:31.374Z,-5.14
2019-01-24T04:06:01.612Z,-5.05
2019-01-24T04:08:32.128Z,-5.07
2019-01-24T04:11:02.494Z,-5.04
2019-01-24T04:13:33.956Z,-5.00
2019-01-24T04:16:04.304Z,-4.99
2019-01-24T04:18:34.525Z,-4.98
2019-01-24T04:21:04.829Z,-4.97
2019-01-24T04:23:35.199Z,-5.00
2019-01-24T04:26:05.545Z,-5.09
2019-01-24T04:28:35.882Z,-5.16
2019-01-24T04:31:06.428Z,-5.19
2019-01-24T04:33:37.859Z,-5.17
2019-01-24T04:36:08.115Z,-5.14
2019-01-24T04:38:38.397Z,-5.21
2019-01-24T04:41:08.709Z,-5.32
2019-01-24T04:43:39.613Z,-5.46
2019-01-24T04:46:10.050Z,-5.45
2019-01-24T04:48:40.542Z,-5.41
2019-01-24T04:51:10.843Z,-5.36
2019-01-24T04:53:42.009Z,-5.19
2019-01-24T04:56:12.310Z,-5.20
2019-01-24T04:58:42.609Z,-5.22
2019-01-24T05:01:12.980Z,-5.33
2019-01-24T05:03:43.325Z,-5.28
2019-01-24T05:06:14.696Z,-5.24
2019-01-24T05:08:45.409Z,-5.28
2019-01-24T05:11:15.756Z,-5.37
2019-01-24T05:13:46.081Z,-5.41
2019-01-24T05:16:16.455Z,-5.45
2019-01-24T05:18:48.225Z,-5.44
2019-01-24T05:21:18.555Z,-5.36
2019-01-24T05:23:49.216Z,-5.31
2019-01-24T05:26:19.559Z,-5.28
2019-01-24T05:28:49.969Z,-5.28
2019-01-24T05:31:20.342Z,-5.19
2019-01-24T05:33:51.091Z,-5.14
2019-01-24T05:36:21.330Z,-5.18
2019-01-24T05:38:52.048Z,-5.34
2019-01-24T05:41:22.511Z,-5.34
2019-01-24T05:43:53.628Z,-5.28
2019-01-24T05:46:24.211Z,-5.23
2019-01-24T05:48:54.706Z,-5.23
2019-01-24T05:51:25.086Z,-5.19
2019-01-24T05:53:55.952Z,-5.22
2019-01-24T05:56:26.197Z,-5.18
2019-01-24T05:58:56.784Z,-5.19
2019-01-24T06:01:27.585Z,-5.28
2019-01-24T06:03:58.348Z,-5.24
2019-01-24T06:06:28.624Z,-5.23
2019-01-24T06:08:58.850Z,-5.13
2019-01-24T06:11:30.437Z,-5.03
2019-01-24T06:14:00.966Z,-4.98
2019-01-24T06:16:31.780Z,-5.04
2019-01-24T06:19:02.083Z,-4.99
2019-01-24T06:21:32.511Z,-4.94
2019-01-24T06:24:03.144Z,-5.02
2019-01-24T06:26:33.462Z,-4.94
2019-01-24T06:29:03.732Z,-4.89
2019-01-24T06:31:34.287Z,-4.80
2019-01-24T06:34:04.919Z,-4.70
2019-01-24T06:36:35.425Z,-4.65
2019-01-24T06:39:08.656Z,-4.55
2019-01-24T06:41:38.875Z,-4.52
2019-01-24T06:44:09.205Z,-4.53
2019-01-24T06:46:39.572Z,-4.62
2019-01-24T06:49:09.912Z,-4.77
2019-01-24T06:51:40.144Z,-4.95
2019-01-24T06:54:10.458Z,-5.05
2019-01-24T06:56:40.837Z,-5.05
2019-01-24T06:59:11.092Z,-4.91
2019-01-24T07:01:41.361Z,-4.87
2019-01-24T07:04:11.658Z,-4.78
2019-01-24T07:06:42.167Z,-4.87
2019-01-24T07:09:12.846Z,-4.81
2019-01-24T07:11:43.400Z,-4.72
2019-01-24T07:14:13.701Z,-4.69
2019-01-24T07:16:44.006Z,-4.60
2019-01-24T07:19:14.386Z,-4.57
2019-01-24T07:21:45.206Z,-4.48
2019-01-24T07:24:15.954Z,-4.28
2019-01-24T07:26:46.483Z,-4.24
2019-01-24T07:29:16.820Z,-4.25
2019-01-24T07:31:47.221Z,-4.20
2019-01-24T07:34:17.581Z,-4.21
2019-01-24T07:36:48.040Z,-4.24
2019-01-24T07:39:18.361Z,-4.27
2019-01-24T07:41:48.632Z,-4.25
2019-01-24T07:44:19.030Z,-4.19
2019-01-24T07:46:49.381Z,-4.19
2019-01-24T07:49:19.912Z,-4.25
2019-01-24T07:51:50.191Z,-4.18
2019-01-24T07:54:20.842Z,-4.19
2019-01-24T07:56:51.361Z,-4.22
2019-01-24T07:59:21.925Z,-4.20
2019-01-24T08:01:52.211Z,-4.16
2019-01-24T08:04:22.442Z,-4.12
2019-01-24T08:06:52.689Z,-4.07
2019-01-24T08:09:24.251Z,-4.01
2019-01-24T08:11:55.573Z,-3.89
2019-01-24T08:14:25.759Z,-3.95
2019-01-24T08:16:56.000Z,-3.86
2019-01-24T08:19:26.494Z,-3.79
2019-01-24T08:21:57.302Z,-3.73
2019-01-24T08:24:27.761Z,-3.73
2019-01-24T08:26:58.187Z,-3.76
2019-01-24T08:29:28.823Z,-3.71
2019-01-24T08:31:59.396Z,-3.70
2019-01-24T08:34:30.022Z,-3.72
2019-01-24T08:37:00.441Z,-3.80
2019-01-24T08:39:30.675Z,-3.73
2019-01-24T08:42:01.609Z,-3.72
2019-01-24T08:44:32.293Z,-3.70
2019-01-24T08:47:02.761Z,-3.64
2019-01-24T08:49:33.060Z,-3.68
2019-01-24T08:52:03.414Z,-3.78
2019-01-24T08:54:33.770Z,-3.82
2019-01-24T08:57:04.611Z,-3.78
2019-01-24T08:59:34.873Z,-3.74
2019-01-24T09:02:06.263Z,-3.89
2019-01-24T09:04:36.504Z,-4.02
2019-01-24T09:07:06.820Z,-3.99
2019-01-24T09:09:37.221Z,-3.99
2019-01-24T09:12:07.669Z,-3.96
2019-01-24T09:14:38.202Z,-3.84
2019-01-24T09:17:08.426Z,-3.71
2019-01-24T09:19:38.794Z,-3.64
2019-01-24T09:22:09.276Z,-3.61
2019-01-24T09:24:39.936Z,-3.59
2019-01-24T09:27:11.407Z,-3.53
2019-01-24T09:29:41.993Z,-3.46
2019-01-24T09:32:12.644Z,-3.40
2019-01-24T09:34:43.355Z,-3.34
2019-01-24T09:37:13.617Z,-3.38
2019-01-24T09:39:44.044Z,-3.52
2019-01-24T09:42:15.760Z,-3.56
2019-01-24T09:44:49.183Z,-3.60
2019-01-24T09:47:19.742Z,-3.61
2019-01-24T09:49:50.050Z,-3.80
2019-01-24T09:52:20.392Z,-3.66
2019-01-24T09:54:50.704Z,-3.69
2019-01-24T09:57:21.085Z,-3.66
2019-01-24T09:59:51.819Z,-3.58
2019-01-24T10:02:22.249Z,-3.54
2019-01-24T10:04:52.523Z,-3.53
2019-01-24T10:07:23.863Z,-3.59
2019-01-24T10:09:54.309Z,-3.56
2019-01-24T10:12:24.595Z,-3.46
2019-01-24T10:14:54.921Z,-3.51
2019-01-24T10:17:25.899Z,-3.53
2019-01-24T10:19:56.590Z,-3.59
2019-01-24T10:22:27.198Z,-3.60
2019-01-24T10:24:57.667Z,-3.53
2019-01-24T10:27:28.027Z,-3.40
2019-01-24T10:29:58.690Z,-3.43
2019-01-24T10:32:29.706Z,-3.49
2019-01-24T10:35:00.008Z,-3.49
2019-01-24T10:37:30.285Z,-3.54
2019-01-24T10:40:00.862Z,-3.58
2019-01-24T10:42:32.389Z,-3.61
2019-01-24T10:45:02.628Z,-3.47
2019-01-24T10:47:33.217Z,-3.43
2019-01-24T10:50:03.487Z,-3.46
2019-01-24T10:52:34.622Z,-3.47
2019-01-24T10:55:05.633Z,-3.56
2019-01-24T10:57:36.251Z,-3.58
2019-01-24T11:00:10.168Z,-3.62
2019-01-24T11:02:40.529Z,-3.60
2019-01-24T11:05:12.254Z,-3.70
2019-01-24T11:07:42.603Z,-3.63
2019-01-24T11:10:13.435Z,-3.62
2019-01-24T11:12:43.769Z,-3.52
2019-01-24T11:15:16.450Z,-3.53
2019-01-24T11:17:46.973Z,-3.68
2019-01-24T11:20:18.908Z,-3.76
2019-01-24T11:22:49.538Z,-3.70
2019-01-24T11:25:21.459Z,-3.70
2019-01-24T11:27:54.846Z,-3.74
2019-01-24T11:30:26.679Z,-3.70
2019-01-24T11:32:57.107Z,-3.65
2019-01-24T11:35:30.286Z,-3.56
2019-01-24T11:38:00.600Z,-3.56
2019-01-24T11:40:30.866Z,-3.51
2019-01-24T11:43:01.224Z,-3.54
2019-01-24T11:45:33.950Z,-3.46
2019-01-24T11:48:05.944Z,-3.37
2019-01-24T11:50:36.488Z,-3.42
2019-01-24T11:53:07.109Z,-3.28
2019-01-24T11:55:37.442Z,-3.25
2019-01-24T11:58:08.376Z,-3.13
2019-01-24T12:00:48.014Z,-3.14
2019-01-24T12:03:18.667Z,-3.17
2019-01-24T12:05:49.108Z,-3.29
2019-01-24T12:08:19.426Z,-3.34
2019-01-24T12:10:49.951Z,-3.37
2019-01-24T12:13:20.477Z,-3.29
2019-01-24T12:15:50.741Z,-3.27
2019-01-24T12:18:21.344Z,-3.43
2019-01-24T12:20:51.960Z,-3.47
2019-01-24T12:23:22.195Z,-3.46
2019-01-24T12:25:52.721Z,-3.36
2019-01-24T12:28:23.440Z,-3.41
2019-01-24T12:30:53.780Z,-3.41
2019-01-24T12:33:24.431Z,-3.37
2019-01-24T12:35:55.139Z,-3.36
2019-01-24T12:38:25.735Z,-3.45
2019-01-24T12:40:56.159Z,-3.35
2019-01-24T12:43:26.817Z,-3.29
2019-01-24T12:45:57.316Z,-3.21
2019-01-24T12:48:28.012Z,-3.19
2019-01-24T12:50:58.275Z,-3.10
2019-01-24T12:53:28.926Z,-3.10
2019-01-24T12:55:59.276Z,-3.03
2019-01-24T12:58:29.707Z,-2.98
2019-01-24T13:01:00.253Z,-2.98
2019-01-24T13:03:30.671Z,-2.87
2019-01-24T13:06:00.929Z,-2.71
2019-01-24T13:08:31.205Z,-2.55
2019-01-24T13:11:01.753Z,-2.52
2019-01-24T13:13:32.059Z,-2.56
2019-01-24T13:16:02.531Z,-2.64
2019-01-24T13:18:33.317Z,-2.71
2019-01-24T13:21:03.615Z,-2.71
2019-01-24T13:23:33.894Z,-2.66
2019-01-24T13:26:04.344Z,-2.86
2019-01-24T13:28:34.590Z,-2.80
2019-01-24T13:31:04.841Z,-2.85
2019-01-24T13:33:35.268Z,-2.81
2019-01-24T13:36:05.778Z,-2.71
2019-01-24T13:38:36.310Z,-2.74
2019-01-24T13:41:06.797Z,-2.75
2019-01-24T13:43:39.397Z,-2.71
2019-01-24T13:46:10.107Z,-2.76
2019-01-24T13:48:40.615Z,-2.63
2019-01-24T13:51:11.372Z,-2.67
2019-01-24T13:53:41.697Z,-2.65
2019-01-24T13:56:12.025Z,-2.62
2019-01-24T13:58:42.367Z,-2.52
2019-01-24T14:01:12.733Z,-2.44
2019-01-24T14:03:56.749Z,-2.59
2019-01-24T14:06:27.013Z,-2.65
2019-01-24T14:08:57.399Z,-2.63
2019-01-24T14:11:27.694Z,-2.58
2019-01-24T14:13:58.017Z,-2.65
2019-01-24T14:16:28.262Z,-2.58
2019-01-24T14:18:58.848Z,-2.52
2019-01-24T14:21:29.203Z,-2.56
2019-01-24T14:23:59.546Z,-2.59
2019-01-24T14:26:29.930Z,-2.59
2019-01-24T14:29:00.261Z,-2.63
2019-01-24T14:31:30.687Z,-2.80
2019-01-24T14:34:01.047Z,-2.86
2019-01-24T14:36:31.428Z,-3.03
2019-01-24T14:39:02.061Z,-3.04
2019-01-24T14:41:32.432Z,-2.97
2019-01-24T14:44:05.895Z,-2.93
2019-01-24T14:46:36.100Z,-2.93
2019-01-24T14:49:06.430Z,-2.99
2019-01-24T14:51:37.261Z,-3.00
2019-01-24T14:54:07.598Z,-2.94
2019-01-24T14:56:38.091Z,-3.07
2019-01-24T14:59:08.418Z,-2.96
2019-01-24T15:01:39.239Z,-3.01
2019-01-24T15:04:09.911Z,-3.18
2019-01-24T15:06:40.274Z,-3.07
2019-01-24T15:09:10.603Z,-3.03
2019-01-24T15:11:44.989Z,-2.92
2019-01-24T15:14:15.350Z,-2.96
2019-01-24T15:16:45.840Z,-2.97
2019-01-24T15:19:16.304Z,-3.07
2019-01-24T15:21:46.724Z,-3.02
2019-01-24T15:24:17.301Z,-2.86
2019-01-24T15:26:47.792Z,-2.79
2019-01-24T15:29:18.075Z,-2.76
2019-01-24T15:31:48.351Z,-2.69
2019-01-24T15:34:18.667Z,-2.80
2019-01-24T15:36:49.496Z,-2.76
2019-01-24T15:39:19.868Z,-2.72
2019-01-24T15:41:50.329Z,-2.74
2019-01-24T15:44:20.567Z,-2.74
2019-01-24T15:46:51.198Z,-2.78
2019-01-24T15:49:21.987Z,-2.78
2019-01-24T15:51:52.696Z,-2.77
2019-01-24T15:54:22.932Z,-2.84
2019-01-24T15:56:53.188Z,-2.75
2019-01-24T15:59:23.479Z,-2.68
2019-01-24T16:01:53.768Z,-2.83
2019-01-24T16:04:24.229Z,-2.78
2019-01-24T16:06:54.501Z,-2.63
2019-01-24T16:09:24.843Z,-2.55
2019-01-24T16:11:55.222Z,-2.72
2019-01-24T16:14:25.495Z,-2.71
2019-01-24T16:16:56.208Z,-2.79
2019-01-24T16:19:26.478Z,-2.67
2019-01-24T16:21:56.783Z,-2.59
2019-01-24T16:24:27.281Z,-2.65
2019-01-24T16:26:57.674Z,-2.72
2019-01-24T16:29:27.952Z,-2.76
2019-01-24T16:31:58.137Z,-2.66
2019-01-24T16:34:28.553Z,-2.67
2019-01-24T16:36:58.997Z,-2.57
2019-01-24T16:39:29.315Z,-2.56
2019-01-24T16:41:59.720Z,-2.55
2019-01-24T16:44:30.060Z,-2.45
2019-01-24T16:47:00.308Z,-2.43
2019-01-24T16:49:30.995Z,-2.36
2019-01-24T16:52:01.238Z,-2.37
2019-01-24T16:54:31.560Z,-2.39
2019-01-24T16:57:01.846Z,-2.45
2019-01-24T16:59:32.270Z,-2.37
2019-01-24T17:02:02.553Z,-2.39
2019-01-24T17:04:33.267Z,-2.38
2019-01-24T17:07:03.586Z,-2.32
2019-01-24T17:09:34.068Z,-2.34
2019-01-24T17:12:05.743Z,-2.19
2019-01-24T17:14:36.127Z,-2.28
2019-01-24T17:17:06.457Z,-2.23
2019-01-24T17:19:37.682Z,-2.25
2019-01-24T17:22:09.322Z,-2.27
2019-01-24T17:24:41.775Z,-2.23
2019-01-24T17:27:13.476Z,-2.18
2019-01-24T17:29:46.729Z,-2.08
2019-01-24T17:32:19.609Z,-1.96
2019-01-24T17:34:51.918Z,-1.93
2019-01-24T17:37:22.517Z,-1.86
2019-01-24T17:39:53.045Z,-1.82
2019-01-24T17:42:23.465Z,-1.90
2019-01-24T17:44:53.740Z,-1.93
2019-01-24T17:47:24.116Z,-1.93
2019-01-24T17:49:57.797Z,-1.96
2019-01-24T17:52:28.325Z,-2.07
2019-01-24T17:54:58.641Z,-2.00
2019-01-24T17:57:29.018Z,-2.03
2019-01-24T17:59:59.423Z,-2.00
2019-01-24T18:02:30.007Z,-2.05
2019-01-24T18:05:00.543Z,-2.07
2019-01-24T18:07:30.754Z,-2.11
2019-01-24T18:10:01.078Z,-2.12
2019-01-24T18:12:31.488Z,-2.09
2019-01-24T18:15:04.429Z,-2.08
2019-01-24T18:17:35.076Z,-2.07
2019-01-24T18:20:07.977Z,-2.07
2019-01-24T18:22:38.536Z,-1.93
2019-01-24T18:25:10.552Z,-1.84
2019-01-24T18:27:42.609Z,-2.01
2019-01-24T18:30:18.405Z,-2.03
2019-01-24T18:32:49.202Z,-1.91
2019-01-24T18:35:19.761Z,-1.83
2019-01-24T18:37:50.186Z,-1.71
2019-01-24T18:40:22.245Z,-1.67
2019-01-24T18:42:53.091Z,-1.58
2019-01-24T18:45:35.806Z,-1.56
2019-01-24T18:48:15.243Z,-1.59
2019-01-24T18:50:45.763Z,-1.66
2019-01-24T18:53:16.009Z,-1.63
2019-01-24T18:55:46.350Z,-1.64
2019-01-24T18:58:16.688Z,-1.65
2019-01-24T19:00:47.767Z,-1.67
2019-01-24T19:03:18.344Z,-1.70
2019-01-24T19:05:48.603Z,-1.72
2019-01-24T19:08:19.049Z,-1.81
2019-01-24T19:10:49.636Z,-1.84
2019-01-24T19:13:20.024Z,-1.83
2019-01-24T19:15:50.767Z,-1.79
2019-01-24T19:18:21.221Z,-1.81
2019-01-24T19:20:52.251Z,-1.81
2019-01-24T19:23:22.543Z,-1.79
2019-01-24T19:25:54.546Z,-1.73
2019-01-24T19:28:25.235Z,-1.69
2019-01-24T19:30:55.598Z,-1.75
2019-01-24T19:33:26.100Z,-1.85
2019-01-24T19:36:00.382Z,-1.85
2019-01-24T19:38:32.373Z,-1.86
2019-01-24T19:41:02.796Z,-1.88
2019-01-24T19:43:33.871Z,-1.82
2019-01-24T19:46:06.307Z,-1.80
2019-01-24T19:48:37.120Z,-1.83
2019-01-24T19:51:10.421Z,-1.94
2019-01-24T19:53:41.972Z,-1.89
2019-01-24T19:56:12.501Z,-1.84
2019-01-24T19:58:42.733Z,-1.87
2019-01-24T20:01:13.365Z,-1.88
2019-01-24T20:03:44.158Z,-1.87
2019-01-24T20:06:15.595Z,-1.86
2019-01-24T20:08:46.334Z,-1.86
2019-01-24T20:11:20.298Z,-1.91
2019-01-24T20:13:50.688Z,-1.88
2019-01-24T20:16:21.040Z,-1.87
2019-01-24T20:18:52.225Z,-1.84
2019-01-24T20:21:22.740Z,-1.84
2019-01-24T20:23:53.629Z,-1.82
2019-01-24T20:26:24.633Z,-1.79
2019-01-24T20:28:54.960Z,-1.70
2019-01-24T20:31:25.846Z,-1.67
2019-01-24T20:33:56.299Z,-1.72
2019-01-24T20:36:26.880Z,-1.75
2019-01-24T20:38:58.811Z,-1.72
2019-01-24T20:41:32.807Z,-1.72
2019-01-24T20:44:03.503Z,-1.71
2019-01-24T20:46:34.193Z,-1.68
2019-01-24T20:49:04.964Z,-1.69
2019-01-24T20:51:36.444Z,-1.63
2019-01-24T20:54:07.063Z,-1.78
2019-01-24T20:56:38.861Z,-1.82
2019-01-24T20:59:09.234Z,-1.78
2019-01-24T21:01:39.787Z,-1.90
2019-01-24T21:04:10.613Z,-1.77
2019-01-24T21:06:41.482Z,-1.73
2019-01-24T21:09:14.836Z,-1.66
2019-01-24T21:11:44.663Z,-1.73
2019-01-24T21:14:15.248Z,-1.73
2019-01-24T21:16:48.034Z,-1.65
2019-01-24T21:19:19.487Z,-1.60
2019-01-24T21:21:50.070Z,-1.64
2019-01-24T21:24:20.548Z,-1.63
2019-01-24T21:26:50.872Z,-1.86
2019-01-24T21:29:21.365Z,-1.82
2019-01-24T21:31:51.944Z,-1.72
2019-01-24T21:34:22.580Z,-1.69
2019-01-24T21:36:54.097Z,-1.70
2019-01-24T21:39:24.770Z,-1.71
2019-01-24T21:41:54.987Z,-1.71
2019-01-24T21:44:26.446Z,-1.77
2019-01-24T21:46:57.177Z,-1.82
2019-01-24T21:49:27.691Z,-1.80
2019-01-24T21:51:58.126Z,-1.88
2019-01-24T21:54:29.193Z,-1.86
2019-01-24T21:56:59.796Z,-1.96
2019-01-24T21:59:30.151Z,-2.01
2019-01-24T22:02:00.397Z,-2.08
2019-01-24T22:04:30.819Z,-2.11
2019-01-24T22:07:01.175Z,-2.15
2019-01-24T22:09:31.682Z,-2.08
2019-01-24T22:12:02.026Z,-2.12
2019-01-24T22:14:32.379Z,-2.12
2019-01-24T22:17:03.150Z,-2.13
2019-01-24T22:19:34.596Z,-2.09
2019-01-24T22:22:05.125Z,-2.08
2019-01-24T22:24:39.977Z,-2.13
2019-01-24T22:27:11.359Z,-1.95
2019-01-24T22:29:41.958Z,-1.98
2019-01-24T22:32:12.726Z,-2.01
2019-01-24T22:34:43.098Z,-1.90
2019-01-24T22:37:13.344Z,-1.80
2019-01-24T22:39:44.787Z,-1.77
2019-01-24T22:42:15.474Z,-1.84
2019-01-24T22:44:45.898Z,-1.73
2019-01-24T22:47:16.178Z,-1.68
2019-01-24T22:49:47.007Z,-1.69
2019-01-24T22:52:18.047Z,-1.68
2019-01-24T22:54:48.449Z,-1.72
2019-01-24T22:57:18.750Z,-1.75
2019-01-24T22:59:49.279Z,-1.90
2019-01-24T23:02:23.809Z,-1.81
2019-01-24T23:04:54.158Z,-1.82
2019-01-24T23:07:24.461Z,-1.76
2019-01-24T23:09:54.927Z,-1.70
2019-01-24T23:12:25.331Z,-1.72
2019-01-24T23:14:56.256Z,-1.73
2019-01-24T23:17:27.242Z,-1.77
2019-01-24T23:19:57.731Z,-1.80
2019-01-24T23:22:28.477Z,-1.83
2019-01-24T23:24:59.013Z,-1.85
2019-01-24T23:27:29.795Z,-1.89
2019-01-24T23:30:01.002Z,-1.89
2019-01-24T23:32:32.475Z,-1.85
2019-01-24T23:35:02.856Z,-1.88
2019-01-24T23:37:33.151Z,-1.93
2019-01-24T23:40:03.598Z,-1.95
2019-01-24T23:42:38.330Z,-1.97
2019-01-24T23:45:08.999Z,-1.91
2019-01-24T23:47:39.497Z,-2.00
2019-01-24T23:50:10.385Z,-1.96
2019-01-24T23:52:41.881Z,-1.99
2019-01-24T23:55:12.285Z,-2.03
2019-01-24T23:57:42.815Z,-2.00
